createdAt,value
2022-12-05T00:01:35.743Z,14.32
2022-12-05T00:04:05.152Z,14.85
2022-12-05T00:06:34.019Z,14.73
2022-12-05T00:09:01.197Z,14.00
2022-12-05T00:11:30.486Z,13.63
2022-12-05T00:13:59.543Z,14.23
2022-12-05T00:16:29.824Z,15.40
2022-12-05T00:18:56.671Z,12.75
2022-12-05T00:21:25.938Z,12.67
2022-12-05T00:23:55.125Z,12.00
2022-12-05T00:26:22.569Z,11.93
2022-12-05T00:28:49.871Z,10.05
2022-12-05T00:31:19.801Z,9.43
2022-12-05T00:33:47.671Z,7.73
2022-12-05T00:36:20.315Z,6.97
2022-12-05T00:38:47.270Z,10.60
2022-12-05T00:41:24.142Z,8.73
2022-12-05T00:43:51.592Z,6.93
2022-12-05T00:46:21.743Z,6.57
2022-12-05T00:48:48.770Z,9.10
2022-12-05T00:51:21.491Z,12.32
2022-12-05T00:53:49.087Z,13.23
2022-12-05T00:56:20.644Z,11.35
2022-12-05T00:58:48.618Z,11.87
2022-12-05T01:01:23.840Z,13.07
2022-12-05T01:03:54.018Z,12.05
2022-12-05T01:06:22.074Z,12.80
2022-12-05T01:08:49.240Z,13.45
2022-12-05T01:11:19.163Z,11.10
2022-12-05T01:13:47.207Z,12.90
2022-12-05T01:16:29.476Z,11.15
2022-12-05T01:18:58.334Z,12.70
2022-12-05T01:21:25.434Z,13.38
2022-12-05T01:23:52.470Z,7.10
2022-12-05T01:26:21.056Z,8.10
2022-12-05T01:28:48.082Z,14.20
2022-12-05T01:31:34.159Z,14.55
2022-12-05T01:34:02.893Z,14.45
2022-12-05T01:36:30.685Z,13.87
2022-12-05T01:38:58.011Z,13.05
2022-12-05T01:41:28.342Z,13.60
2022-12-05T01:43:57.568Z,13.55
2022-12-05T01:46:25.747Z,14.25
2022-12-05T01:48:55.928Z,13.50
2022-12-05T01:51:23.588Z,9.95
2022-12-05T01:53:50.454Z,13.55
2022-12-05T01:56:18.656Z,13.73
2022-12-05T01:58:46.711Z,12.93
2022-12-05T02:01:16.836Z,14.60
2022-12-05T02:03:48.684Z,14.75
2022-12-05T02:06:16.172Z,14.80
2022-12-05T02:08:44.819Z,13.73
2022-12-05T02:11:12.683Z,14.13
2022-12-05T02:13:47.497Z,13.70
2022-12-05T02:16:36.246Z,13.35
2022-12-05T02:19:41.472Z,12.25
2022-12-05T02:22:08.331Z,13.98
2022-12-05T02:25:08.924Z,13.82
2022-12-05T02:28:03.843Z,13.40
2022-12-05T02:30:52.186Z,13.98
2022-12-05T02:33:32.734Z,14.32
2022-12-05T02:36:11.684Z,14.45
2022-12-05T02:39:01.490Z,14.35
2022-12-05T02:41:34.716Z,14.63
2022-12-05T02:44:16.508Z,14.45
2022-12-05T02:46:45.656Z,13.88
2022-12-05T02:49:18.598Z,12.25
2022-12-05T02:51:50.337Z,14.50
2022-12-05T02:54:26.706Z,14.30
2022-12-05T02:56:54.994Z,13.82
2022-12-05T02:59:23.692Z,13.27
2022-12-05T03:01:51.165Z,10.88
2022-12-05T03:04:21.380Z,10.70
2022-12-05T03:06:59.963Z,9.57
2022-12-05T03:10:01.925Z,11.05
2022-12-05T03:12:37.175Z,11.60
2022-12-05T03:15:15.383Z,10.93
2022-12-05T03:17:48.390Z,10.68
2022-12-05T03:20:28.309Z,9.97
2022-12-05T03:23:03.512Z,9.77
2022-12-05T03:25:41.145Z,7.55
2022-12-05T03:28:19.252Z,7.35
2022-12-05T03:30:48.579Z,8.00
2022-12-05T03:33:20.604Z,8.30
2022-12-05T03:36:19.442Z,8.00
2022-12-05T03:38:52.651Z,7.13
2022-12-05T03:41:35.005Z,6.43
2022-12-05T03:44:14.801Z,6.82
2022-12-05T03:46:47.242Z,6.93
2022-12-05T03:49:37.109Z,6.80
2022-12-05T03:52:07.152Z,6.80
2022-12-05T03:54:56.910Z,7.28
2022-12-05T03:57:47.240Z,7.10
2022-12-05T04:00:18.646Z,6.90
2022-12-05T04:02:51.454Z,7.88
2022-12-05T04:05:30.422Z,7.32
2022-12-05T04:08:26.927Z,7.95
2022-12-05T04:10:59.704Z,9.35
2022-12-05T04:13:37.697Z,7.90
2022-12-05T04:16:16.622Z,9.38
2022-12-05T04:19:00.695Z,10.38
2022-12-05T04:21:34.066Z,7.45
2022-12-05T04:24:01.144Z,8.52
2022-12-05T04:26:31.952Z,7.30
2022-12-05T04:29:14.771Z,6.07
2022-12-05T04:31:44.188Z,7.25
2022-12-05T04:34:13.891Z,7.55
2022-12-05T04:36:58.338Z,6.13
2022-12-05T04:39:31.737Z,6.83
2022-12-05T04:42:06.489Z,8.05
2022-12-05T04:44:38.423Z,9.02
2022-12-05T04:47:08.742Z,9.85
2022-12-05T04:49:37.061Z,6.57
2022-12-05T04:52:08.960Z,6.50
2022-12-05T04:54:42.254Z,7.60
2022-12-05T04:57:18.760Z,8.15
2022-12-05T04:59:45.984Z,7.35
2022-12-05T05:02:18.169Z,8.05
2022-12-05T05:04:48.895Z,6.80
2022-12-05T05:07:15.923Z,9.07
2022-12-05T05:09:44.054Z,10.10
2022-12-05T05:12:18.619Z,10.52
2022-12-05T05:14:45.870Z,12.80
2022-12-05T05:17:12.744Z,7.50
2022-12-05T05:19:39.503Z,13.60
2022-12-05T05:22:06.348Z,14.60
2022-12-05T05:24:33.257Z,9.45
2022-12-05T05:27:00.151Z,10.80
2022-12-05T05:29:27.080Z,10.07
2022-12-05T05:31:53.920Z,10.80
2022-12-05T05:34:20.647Z,12.85
2022-12-05T05:36:52.423Z,15.50
2022-12-05T05:39:19.199Z,14.00
2022-12-05T05:41:46.054Z,15.03
2022-12-05T05:44:12.918Z,15.07
2022-12-05T05:46:39.825Z,15.05
2022-12-05T05:49:06.749Z,15.68
2022-12-05T05:51:33.874Z,16.50
2022-12-05T05:54:01.249Z,17.77
2022-12-05T05:56:29.267Z,17.52
2022-12-05T05:59:01.787Z,22.38
2022-12-05T06:01:29.175Z,21.15
2022-12-05T06:03:56.488Z,17.83
2022-12-05T06:06:24.609Z,17.43
2022-12-05T06:08:51.483Z,17.27
2022-12-05T06:11:25.986Z,14.63
2022-12-05T06:13:57.325Z,15.30
2022-12-05T06:16:25.631Z,15.50
2022-12-05T06:18:53.238Z,15.20
2022-12-05T06:21:21.138Z,16.70
2022-12-05T06:23:49.930Z,17.25
2022-12-05T06:26:19.847Z,16.23
2022-12-05T06:28:46.805Z,16.63
2022-12-05T06:31:19.564Z,17.63
2022-12-05T06:33:46.682Z,19.70
2022-12-05T06:36:17.047Z,19.98
2022-12-05T06:38:44.372Z,19.63
2022-12-05T06:41:21.173Z,19.98
2022-12-05T06:43:48.098Z,8.37
2022-12-05T06:46:16.074Z,16.92
2022-12-05T06:48:43.096Z,20.15
2022-12-05T06:51:12.119Z,20.40
2022-12-05T06:53:39.597Z,10.20
2022-12-05T06:56:08.114Z,19.80
2022-12-05T06:58:35.013Z,19.63
2022-12-05T07:01:02.896Z,19.02
2022-12-05T07:03:29.738Z,21.17
2022-12-05T07:05:56.607Z,22.33
2022-12-05T07:08:23.351Z,21.40
2022-12-05T07:10:53.297Z,22.67
2022-12-05T07:13:20.252Z,22.60
2022-12-05T07:15:47.789Z,18.80
2022-12-05T07:18:16.348Z,21.15
2022-12-05T07:21:10.795Z,10.63
2022-12-05T07:23:30.860Z,10.73
2022-12-05T07:25:57.797Z,7.13
2022-12-05T07:28:25.323Z,7.00
2022-12-05T07:31:12.497Z,8.20
2022-12-05T07:33:39.719Z,7.73
2022-12-05T07:36:12.373Z,6.55
2022-12-05T07:38:39.732Z,7.35
2022-12-05T07:41:13.032Z,7.57
2022-12-05T07:43:41.068Z,7.30
2022-12-05T07:46:09.715Z,7.00
2022-12-05T07:48:36.614Z,6.70
2022-12-05T07:51:05.499Z,6.70
2022-12-05T07:53:32.943Z,6.78
2022-12-05T07:56:01.287Z,7.10
2022-12-05T07:58:32.612Z,6.97
2022-12-05T08:01:10.898Z,7.57
2022-12-05T08:03:38.096Z,6.82
2022-12-05T08:06:07.086Z,7.20
2022-12-05T08:08:34.099Z,7.60
2022-12-05T08:11:12.846Z,6.37
2022-12-05T08:13:40.634Z,7.68
2022-12-05T08:16:11.083Z,7.15
2022-12-05T08:18:38.754Z,7.43
2022-12-05T08:21:17.317Z,7.63
2022-12-05T08:23:45.317Z,7.30
2022-12-05T08:26:18.158Z,9.05
2022-12-05T08:28:45.452Z,15.25
2022-12-05T08:31:17.053Z,9.85
2022-12-05T08:33:44.597Z,7.82
2022-12-05T08:36:14.451Z,9.13
2022-12-05T08:38:41.846Z,8.82
2022-12-05T08:41:14.080Z,9.57
2022-12-05T08:43:41.545Z,9.18
2022-12-05T08:46:09.274Z,8.93
2022-12-05T08:48:37.480Z,10.17
2022-12-05T08:51:09.764Z,12.15
2022-12-05T08:53:43.911Z,10.35
2022-12-05T08:56:11.414Z,9.45
2022-12-05T08:58:38.984Z,8.88
2022-12-05T09:01:08.066Z,9.07
2022-12-05T09:03:35.252Z,8.63
2022-12-05T09:06:10.196Z,10.75
2022-12-05T09:08:38.020Z,8.85
2022-12-05T09:11:06.903Z,8.38
2022-12-05T09:13:34.394Z,8.33
2022-12-05T09:16:10.360Z,9.50
2022-12-05T09:18:37.678Z,8.18
2022-12-05T09:21:16.918Z,8.95
2022-12-05T09:23:44.422Z,9.30
2022-12-05T09:26:13.845Z,8.33
2022-12-05T09:28:43.690Z,9.75
2022-12-05T09:31:14.377Z,9.60
2022-12-05T09:33:41.426Z,8.63
2022-12-05T09:36:12.457Z,10.32
2022-12-05T09:38:39.580Z,8.47
2022-12-05T09:41:12.061Z,8.05
2022-12-05T09:43:47.966Z,9.00
2022-12-05T09:46:52.169Z,9.60
2022-12-05T09:49:19.505Z,10.63
2022-12-05T09:51:53.769Z,10.50
2022-12-05T09:54:23.639Z,8.77
2022-12-05T09:56:51.907Z,10.82
2022-12-05T09:59:20.432Z,11.20
2022-12-05T10:01:55.782Z,10.43
2022-12-05T10:04:31.912Z,8.27
2022-12-05T10:07:16.218Z,9.43
2022-12-05T10:10:19.625Z,9.40
2022-12-05T10:12:58.110Z,9.15
2022-12-05T10:15:46.913Z,9.43
2022-12-05T10:18:25.866Z,8.73
2022-12-05T10:21:04.656Z,8.98
2022-12-05T10:23:57.061Z,9.20
2022-12-05T10:26:29.829Z,9.40
2022-12-05T10:29:27.361Z,8.93
2022-12-05T10:32:05.568Z,8.90
2022-12-05T10:34:38.968Z,8.32
2022-12-05T10:37:16.557Z,9.45
2022-12-05T10:39:43.706Z,7.88
2022-12-05T10:42:16.709Z,9.98
2022-12-05T10:44:44.594Z,8.60
2022-12-05T10:47:12.382Z,6.68
2022-12-05T10:49:39.932Z,6.20
2022-12-05T10:52:07.116Z,5.85
2022-12-05T10:54:45.249Z,6.13
2022-12-05T10:57:27.350Z,5.87
2022-12-05T10:59:54.582Z,5.40
2022-12-05T11:02:31.027Z,5.80
2022-12-05T11:04:58.824Z,6.00
2022-12-05T11:07:35.486Z,5.85
2022-12-05T11:10:24.955Z,6.67
2022-12-05T11:12:55.883Z,7.57
2022-12-05T11:15:26.740Z,7.20
2022-12-05T11:17:56.014Z,8.35
2022-12-05T11:20:22.759Z,7.07
2022-12-05T11:22:52.536Z,7.77
2022-12-05T11:25:28.287Z,7.10
2022-12-05T11:28:00.920Z,7.22
2022-12-05T11:30:29.595Z,5.72
2022-12-05T11:33:18.284Z,5.50
2022-12-05T11:35:46.981Z,5.77
2022-12-05T11:38:16.986Z,5.57
2022-12-05T11:40:53.430Z,5.25
2022-12-05T11:43:47.978Z,5.90
2022-12-05T11:46:33.558Z,6.40
2022-12-05T11:49:21.285Z,7.47
2022-12-05T11:52:09.916Z,6.60
2022-12-05T11:55:05.719Z,7.57
2022-12-05T11:57:51.792Z,7.05
2022-12-05T12:00:30.819Z,7.55
2022-12-05T12:03:33.120Z,6.93
2022-12-05T12:06:28.354Z,5.65
2022-12-05T12:09:24.555Z,6.38
2022-12-05T12:12:05.244Z,5.35
2022-12-05T12:15:22.943Z,4.60
2022-12-05T12:18:04.917Z,5.33
2022-12-05T12:20:50.746Z,5.70
2022-12-05T12:23:35.462Z,5.60
2022-12-05T12:26:08.166Z,5.20
2022-12-05T12:28:40.651Z,5.50
2022-12-05T12:31:13.390Z,5.47
2022-12-05T12:34:16.211Z,5.07
2022-12-05T12:36:54.052Z,5.65
2022-12-05T12:39:28.219Z,4.88
2022-12-05T12:42:13.288Z,5.45
2022-12-05T12:45:28.403Z,4.73
2022-12-05T12:48:14.320Z,5.15
2022-12-05T12:50:44.377Z,4.80
2022-12-05T12:53:45.849Z,4.65
2022-12-05T12:56:51.276Z,4.57
2022-12-05T12:59:31.639Z,4.80
2022-12-05T13:02:05.743Z,4.68
2022-12-05T13:04:44.761Z,5.00
2022-12-05T13:07:17.941Z,4.30
2022-12-05T13:09:53.973Z,4.15
2022-12-05T13:12:27.073Z,4.00
2022-12-05T13:15:01.406Z,4.32
2022-12-05T13:17:30.659Z,4.20
2022-12-05T13:19:57.820Z,4.50
2022-12-05T13:22:27.632Z,4.40
2022-12-05T13:24:55.673Z,4.50
2022-12-05T13:27:25.517Z,4.28
2022-12-05T13:30:00.059Z,4.88
2022-12-05T13:32:32.235Z,5.75
2022-12-05T13:35:09.721Z,4.60
2022-12-05T13:37:37.475Z,5.20
2022-12-05T13:40:05.110Z,3.90
2022-12-05T13:42:31.921Z,4.15
2022-12-05T13:45:04.785Z,4.03
2022-12-05T13:48:02.485Z,4.22
2022-12-05T13:50:40.277Z,4.17
2022-12-05T13:53:21.637Z,4.55
2022-12-05T13:56:07.329Z,4.30
2022-12-05T13:58:43.304Z,5.55
2022-12-05T14:01:25.256Z,4.70
2022-12-05T14:03:52.241Z,4.10
2022-12-05T14:06:37.053Z,4.45
2022-12-05T14:09:24.787Z,3.63
2022-12-05T14:12:10.427Z,3.83
2022-12-05T14:15:23.299Z,4.20
2022-12-05T14:17:50.280Z,4.20
2022-12-05T14:20:33.253Z,4.22
2022-12-05T14:23:04.389Z,5.22
2022-12-05T14:25:44.399Z,6.57
2022-12-05T14:28:26.650Z,7.18
2022-12-05T14:31:32.935Z,8.43
2022-12-05T14:34:26.101Z,7.95
2022-12-05T14:37:06.285Z,8.45
2022-12-05T14:39:41.148Z,5.65
2022-12-05T14:42:22.835Z,6.60
2022-12-05T14:44:52.048Z,5.77
2022-12-05T14:47:25.640Z,5.18
2022-12-05T14:50:20.406Z,5.50
2022-12-05T14:53:22.291Z,5.95
2022-12-05T14:55:58.044Z,6.10
2022-12-05T14:58:45.612Z,6.20
2022-12-05T15:01:32.724Z,6.72
2022-12-05T15:04:20.234Z,7.18
2022-12-05T15:06:55.378Z,7.32
2022-12-05T15:09:38.610Z,8.45
2022-12-05T15:12:16.927Z,7.17
2022-12-05T15:14:48.303Z,6.97
2022-12-05T15:17:22.028Z,6.53
2022-12-05T15:19:57.516Z,6.03
2022-12-05T15:22:28.370Z,6.75
2022-12-05T15:24:55.167Z,6.30
2022-12-05T15:27:22.205Z,5.75
2022-12-05T15:30:02.871Z,5.22
2022-12-05T15:32:29.778Z,5.50
2022-12-05T15:35:07.671Z,5.78
2022-12-05T15:37:55.370Z,9.83
2022-12-05T15:40:23.829Z,14.27
2022-12-05T15:42:52.912Z,11.65
2022-12-05T15:45:25.674Z,9.20
2022-12-05T15:48:19.767Z,7.57
2022-12-05T15:50:53.218Z,7.20
2022-12-05T15:53:37.386Z,6.70
2022-12-05T15:56:33.401Z,7.13
2022-12-05T15:59:18.238Z,6.78
2022-12-05T16:01:50.254Z,7.18
2022-12-05T16:04:29.895Z,6.93
2022-12-05T16:06:59.597Z,7.15
2022-12-05T16:09:33.844Z,6.55
2022-12-05T16:12:04.300Z,6.63
2022-12-05T16:14:59.634Z,6.63
2022-12-05T16:17:22.920Z,6.30
2022-12-05T16:19:50.083Z,6.47
2022-12-05T16:22:25.342Z,6.20
2022-12-05T16:25:04.444Z,6.35
2022-12-05T16:27:37.372Z,6.80
2022-12-05T16:30:13.070Z,6.47
2022-12-05T16:32:41.388Z,6.60
2022-12-05T16:35:46.230Z,6.47
2022-12-05T16:38:28.068Z,6.45
2022-12-05T16:41:00.198Z,6.85
2022-12-05T16:43:32.040Z,6.90
2022-12-05T16:46:28.308Z,6.95
2022-12-05T16:49:13.803Z,7.20
2022-12-05T16:51:42.075Z,7.10
2022-12-05T16:54:09.409Z,7.40
2022-12-05T16:56:36.626Z,6.43
2022-12-05T16:59:13.711Z,7.15
2022-12-05T17:01:40.513Z,7.40
2022-12-05T17:04:11.300Z,7.35
2022-12-05T17:06:38.712Z,7.15
2022-12-05T17:09:05.549Z,6.27
2022-12-05T17:11:35.249Z,6.93
2022-12-05T17:14:02.955Z,7.88
2022-12-05T17:16:29.879Z,6.97
2022-12-05T17:18:56.771Z,6.85
2022-12-05T17:21:27.168Z,6.63
2022-12-05T17:23:54.005Z,6.65
2022-12-05T17:26:22.114Z,6.72
2022-12-05T17:28:49.736Z,6.70
2022-12-05T17:31:21.679Z,7.60
2022-12-05T17:33:50.020Z,6.30
2022-12-05T17:36:17.214Z,7.00
2022-12-05T17:38:44.491Z,6.85
2022-12-05T17:41:17.318Z,6.63
2022-12-05T17:43:45.018Z,6.10
2022-12-05T17:46:16.163Z,6.00
2022-12-05T17:48:42.974Z,6.18
2022-12-05T17:51:10.521Z,6.45
2022-12-05T17:53:37.954Z,6.75
2022-12-05T17:56:05.705Z,7.05
2022-12-05T17:58:32.890Z,7.03
2022-12-05T18:01:00.130Z,7.03
2022-12-05T18:03:27.170Z,7.50
2022-12-05T18:05:54.119Z,6.80
2022-12-05T18:08:21.421Z,6.90
2022-12-05T18:10:49.424Z,7.03
2022-12-05T18:13:17.510Z,7.32
2022-12-05T18:15:46.582Z,7.00
2022-12-05T18:18:15.878Z,7.55
2022-12-05T18:20:42.755Z,8.02
2022-12-05T18:23:09.467Z,7.07
2022-12-05T18:25:36.262Z,7.50
2022-12-05T18:28:03.057Z,7.65
2022-12-05T18:30:29.981Z,7.50
2022-12-05T18:32:56.776Z,7.22
2022-12-05T18:35:23.551Z,7.37
2022-12-05T18:37:50.391Z,6.38
2022-12-05T18:40:17.288Z,6.50
2022-12-05T18:42:44.040Z,5.55
2022-12-05T18:45:14.027Z,5.35
2022-12-05T18:47:41.036Z,5.63
2022-12-05T18:50:08.336Z,6.03
2022-12-05T18:52:35.586Z,6.10
2022-12-05T18:55:16.698Z,5.30
2022-12-05T18:57:44.671Z,6.10
2022-12-05T19:00:12.080Z,5.73
2022-12-05T19:02:39.051Z,4.78
2022-12-05T19:05:06.102Z,5.32
2022-12-05T19:07:32.933Z,4.90
2022-12-05T19:10:00.009Z,5.30
2022-12-05T19:12:27.240Z,6.07
2022-12-05T19:14:54.179Z,6.28
2022-12-05T19:17:20.946Z,6.75
2022-12-05T19:19:47.814Z,5.80
2022-12-05T19:22:17.693Z,6.72
2022-12-05T19:24:44.528Z,6.50
2022-12-05T19:27:11.587Z,6.05
2022-12-05T19:29:38.513Z,5.90
2022-12-05T19:32:05.737Z,5.60
2022-12-05T19:34:34.443Z,5.68
2022-12-05T19:37:01.212Z,5.67
2022-12-05T19:39:28.083Z,4.80
2022-12-05T19:41:55.034Z,5.18
2022-12-05T19:44:21.891Z,5.43
2022-12-05T19:46:49.243Z,5.30
2022-12-05T19:49:17.036Z,6.10
2022-12-05T19:51:44.926Z,7.28
2022-12-05T19:54:13.786Z,7.55
2022-12-05T19:56:40.922Z,7.65
2022-12-05T19:59:07.779Z,7.07
2022-12-05T20:01:37.458Z,6.67
2022-12-05T20:04:09.110Z,6.22
2022-12-05T20:06:41.842Z,5.82
2022-12-05T20:09:09.981Z,5.75
2022-12-05T20:11:40.928Z,5.95
2022-12-05T20:14:10.168Z,6.70
2022-12-05T20:16:39.726Z,6.75
2022-12-05T20:19:06.808Z,7.82
2022-12-05T20:21:36.288Z,8.20
2022-12-05T20:24:04.800Z,6.82
2022-12-05T20:26:34.872Z,7.50
2022-12-05T20:29:02.489Z,7.15
2022-12-05T20:31:40.707Z,6.90
2022-12-05T20:34:15.684Z,6.75
2022-12-05T20:36:43.143Z,7.10
2022-12-05T20:39:17.304Z,6.97
2022-12-05T20:41:44.680Z,6.97
2022-12-05T20:44:15.501Z,6.93
2022-12-05T20:46:43.099Z,6.68
2022-12-05T20:49:14.772Z,6.60
2022-12-05T20:51:43.895Z,6.30
2022-12-05T20:54:11.756Z,6.80
2022-12-05T20:56:42.995Z,6.45
2022-12-05T20:59:12.750Z,7.20
2022-12-05T21:01:42.985Z,6.32
2022-12-05T21:04:12.360Z,6.13
2022-12-05T21:06:41.240Z,6.32
2022-12-05T21:09:09.823Z,6.32
2022-12-05T21:11:36.652Z,6.68
2022-12-05T21:14:03.434Z,6.20
2022-12-05T21:16:30.557Z,5.90
2022-12-05T21:18:59.908Z,6.10
2022-12-05T21:21:28.708Z,6.07
2022-12-05T21:24:01.120Z,5.97
2022-12-05T21:26:30.405Z,5.82
2022-12-05T21:28:58.617Z,10.37
2022-12-05T21:31:28.859Z,10.70
2022-12-05T21:33:58.943Z,9.20
2022-12-05T21:36:27.319Z,10.38
2022-12-05T21:38:56.219Z,8.95
2022-12-05T21:41:25.032Z,10.53
2022-12-05T21:43:55.025Z,9.80
2022-12-05T21:46:23.842Z,9.70
2022-12-05T21:48:50.978Z,11.48
2022-12-05T21:51:18.226Z,11.25
2022-12-05T21:53:45.136Z,10.90
2022-12-05T21:56:14.654Z,11.93
2022-12-05T21:58:43.335Z,10.77
2022-12-05T22:01:31.519Z,9.40
2022-12-05T22:03:59.285Z,9.40
2022-12-05T22:06:26.526Z,8.93
2022-12-05T22:08:54.363Z,8.75
2022-12-05T22:11:22.900Z,8.25
2022-12-05T22:13:50.433Z,10.25
2022-12-05T22:16:18.442Z,8.48
2022-12-05T22:18:45.938Z,8.47
2022-12-05T22:21:15.235Z,6.20
2022-12-05T22:23:42.735Z,5.63
2022-12-05T22:26:12.292Z,5.18
2022-12-05T22:28:39.766Z,5.65
2022-12-05T22:31:08.795Z,4.30
2022-12-05T22:33:36.427Z,4.70
2022-12-05T22:36:05.677Z,4.13
2022-12-05T22:38:35.855Z,4.72
2022-12-05T22:41:06.041Z,5.32
2022-12-05T22:43:34.412Z,4.97
2022-12-05T22:46:09.716Z,5.40
2022-12-05T22:48:36.964Z,5.13
2022-12-05T22:51:05.194Z,5.03
2022-12-05T22:53:32.145Z,5.25
2022-12-05T22:56:06.460Z,4.63
2022-12-05T22:58:34.110Z,4.57
2022-12-05T23:01:14.470Z,5.60
2022-12-05T23:03:42.432Z,5.97
2022-12-05T23:06:12.053Z,6.28
2022-12-05T23:08:41.065Z,6.03
2022-12-05T23:11:09.115Z,6.75
2022-12-05T23:13:37.241Z,6.95
2022-12-05T23:16:08.985Z,6.53
2022-12-05T23:18:37.234Z,6.90
2022-12-05T23:21:04.051Z,6.53
2022-12-05T23:23:30.900Z,6.35
2022-12-05T23:25:57.737Z,7.07
2022-12-05T23:28:24.632Z,5.30
2022-12-05T23:30:51.523Z,5.28
2022-12-05T23:33:18.279Z,5.33
2022-12-05T23:35:45.076Z,4.88
2022-12-05T23:38:12.294Z,4.38
2022-12-05T23:40:39.115Z,5.30
2022-12-05T23:43:05.897Z,4.32
2022-12-05T23:45:32.750Z,4.70
2022-12-05T23:48:04.289Z,4.90
2022-12-05T23:50:31.388Z,4.60
2022-12-05T23:52:58.231Z,4.47
2022-12-05T23:55:25.007Z,4.88
2022-12-05T23:57:51.925Z,4.70
